Terminal Aerodrome Forecast
Issued by NWS

Home | Current Version | Previous Version | Text Only | Print | Product List | Glossary On
Versions: 1 2 3 4 5 6 7 8 9 10 11 12 13 14 15 16 17 18 19 20 21 22 23 24 25 26 27 28 29 30 31 32 33 34 35 36 37 38 39 40 41 42 43 44 45 46
000
FTAK31 PANC 040911 AAB
TAFADL
TAF AMD
PADL 040911Z 0409/0506 VRB05KT 1SM BR OVC002
      TEMPO 0409/0413 1/2SM FG OVC002
     FM041300 20006KT 1SM BR SCT002 BKN004 OVC012
     FM042000 22008KT P6SM SCT012 BKN020
      AMD LTD TO CLD VIS AND WIND 0409/0416=

USA.gov is the U.S. government's official web portal to all federal, state and local government web resources and services.